You are not logged in, Click here to log in
ICAO: ZSNJ Country: 江蘇省南京市江寧區祿口街道
Latitude: 31.7338 Longitude: 118.872
Total Arrivals: 6 Total Departures: 5
Latest Arrival: H9Z678 (ZYTL-ZSNJ)CHU. CHUHAO Latest Departure: B7125 (ZSNJ-RCTP)CHU. CHUHAO
Scenery:
METAR : ZSNJ 210700Z 03002MPS 330V090 9999 SCT046 33/22 Q1006 NOSIG

南京祿口國際機場NKG